createdAt,value
2024-04-12T00:02:11.149Z,100811.16
2024-04-12T00:04:39.036Z,100809.53
2024-04-12T00:07:16.896Z,100802.28
2024-04-12T00:09:55.658Z,100807.00
2024-04-12T00:12:29.617Z,100805.41
2024-04-12T00:15:04.263Z,100799.84
2024-04-12T00:17:33.422Z,100804.94
2024-04-12T00:20:02.592Z,100812.13
2024-04-12T00:22:31.965Z,100813.28
2024-04-12T00:25:01.931Z,100809.34
2024-04-12T00:27:35.634Z,100809.69
2024-04-12T00:30:09.606Z,100803.97
2024-04-12T00:32:38.072Z,100809.91
2024-04-12T00:35:12.941Z,100814.66
2024-04-12T00:37:54.739Z,100815.00
2024-04-12T00:40:22.977Z,100816.06
2024-04-12T00:42:51.973Z,100809.59
2024-04-12T00:45:39.674Z,100809.13
2024-04-12T00:48:09.591Z,100815.84
2024-04-12T00:50:41.932Z,100809.13
2024-04-12T00:53:12.754Z,100814.34
2024-04-12T00:55:40.758Z,100814.34
2024-04-12T00:58:11.477Z,100812.72
2024-04-12T01:00:48.399Z,100799.06
2024-04-12T01:03:17.003Z,100799.75
2024-04-12T01:05:45.017Z,100798.84
2024-04-12T01:08:13.037Z,100800.34
2024-04-12T01:10:40.561Z,100797.94
2024-04-12T01:13:13.213Z,100802.22
2024-04-12T01:15:40.759Z,100803.28
2024-04-12T01:18:13.101Z,100796.44
2024-04-12T01:20:41.442Z,100793.22
2024-04-12T01:23:11.773Z,100805.81
2024-04-12T01:25:39.576Z,100793.44
2024-04-12T01:28:11.279Z,100800.41
2024-04-12T01:30:41.486Z,100800.28
2024-04-12T01:33:10.768Z,100792.19
2024-04-12T01:35:38.689Z,100788.13
2024-04-12T01:38:20.043Z,100788.81
2024-04-12T01:40:59.061Z,100786.28
2024-04-12T01:43:28.997Z,100788.63
2024-04-12T01:45:56.978Z,100790.69
2024-04-12T01:48:25.141Z,100786.47
2024-04-12T01:50:52.973Z,100783.94
2024-04-12T01:53:23.556Z,100786.94
2024-04-12T01:55:52.865Z,100781.41
2024-04-12T01:58:21.950Z,100780.47
2024-04-12T02:00:50.845Z,100776.75
2024-04-12T02:03:20.125Z,100776.31
2024-04-12T02:05:51.128Z,100780.59
2024-04-12T02:08:19.676Z,100790.41
2024-04-12T02:10:50.791Z,100790.16
2024-04-12T02:13:20.044Z,100797.09
2024-04-12T02:15:48.496Z,100796.28
2024-04-12T02:18:16.260Z,100794.06
2024-04-12T02:20:46.689Z,100798.22
2024-04-12T02:23:17.638Z,100801.00
2024-04-12T02:25:45.483Z,100799.56
2024-04-12T02:28:14.219Z,100801.88
2024-04-12T02:31:02.394Z,100803.03
2024-04-12T02:33:34.078Z,100803.38
2024-04-12T02:36:05.545Z,100805.44
2024-04-12T02:38:33.508Z,100800.84
2024-04-12T02:41:01.095Z,100808.31
2024-04-12T02:43:30.950Z,100801.16
2024-04-12T02:46:00.192Z,100802.50
2024-04-12T02:48:29.691Z,100814.09
2024-04-12T02:51:04.748Z,100806.44
2024-04-12T02:53:32.940Z,100808.25
2024-04-12T02:56:10.338Z,100799.41
2024-04-12T02:58:42.217Z,100813.94
2024-04-12T03:01:15.411Z,100807.44
2024-04-12T03:04:05.117Z,100814.16
2024-04-12T03:06:33.767Z,100809.63
2024-04-12T03:09:03.115Z,100812.75
2024-04-12T03:11:39.165Z,100819.78
2024-04-12T03:14:11.808Z,100817.47
2024-04-12T03:16:44.029Z,100817.78
2024-04-12T03:19:13.583Z,100819.28
2024-04-12T03:21:43.942Z,100817.34
2024-04-12T03:24:12.027Z,100822.38
2024-04-12T03:26:39.949Z,100818.69
2024-04-12T03:29:07.704Z,100824.25
2024-04-12T03:31:40.243Z,100819.38
2024-04-12T03:34:09.149Z,100815.31
2024-04-12T03:36:37.412Z,100816.09
2024-04-12T03:39:22.919Z,100817.59
2024-04-12T03:41:52.709Z,100817.47
2024-04-12T03:44:20.197Z,100813.41
2024-04-12T03:46:51.514Z,100813.28
2024-04-12T03:49:23.241Z,100817.19
2024-04-12T03:51:53.079Z,100804.16
2024-04-12T03:54:22.410Z,100812.78
2024-04-12T03:56:53.330Z,100811.19
2024-04-12T03:59:21.996Z,100817.88
2024-04-12T04:01:50.079Z,100815.75
2024-04-12T04:04:20.910Z,100812.72
2024-04-12T04:06:50.431Z,100822.84
2024-04-12T04:09:21.096Z,100823.97
2024-04-12T04:11:49.409Z,100821.91
2024-04-12T04:14:21.036Z,100820.63
2024-04-12T04:16:51.102Z,100816.84
2024-04-12T04:19:31.979Z,100816.69
2024-04-12T04:22:28.764Z,100813.09
2024-04-12T04:24:56.535Z,100821.59
2024-04-12T04:27:24.660Z,100820.00
2024-04-12T04:29:52.903Z,100826.31
2024-04-12T04:32:23.626Z,100829.25
2024-04-12T04:35:06.505Z,100820.00
2024-04-12T04:37:41.475Z,100825.88
2024-04-12T04:40:19.104Z,100820.00
2024-04-12T04:42:48.442Z,100819.34
2024-04-12T04:45:20.662Z,100820.25
2024-04-12T04:47:52.133Z,100819.59
2024-04-12T04:50:21.531Z,100822.84
2024-04-12T04:52:49.467Z,100822.16
2024-04-12T04:55:19.204Z,100815.97
2024-04-12T04:57:51.261Z,100822.84
2024-04-12T05:00:24.475Z,100820.56
2024-04-12T05:02:54.863Z,100813.72
2024-04-12T05:05:29.298Z,100821.84
2024-04-12T05:07:58.631Z,100819.88
2024-04-12T05:10:27.153Z,100808.00
2024-04-12T05:12:55.762Z,100809.78
2024-04-12T05:15:32.434Z,100807.47
2024-04-12T05:18:05.333Z,100810.56
2024-04-12T05:20:42.306Z,100808.75
2024-04-12T05:23:13.959Z,100817.06
2024-04-12T05:25:41.865Z,100808.13
2024-04-12T05:28:09.371Z,100807.34
2024-04-12T05:30:44.546Z,100808.41
2024-04-12T05:33:13.347Z,100801.88
2024-04-12T05:35:41.725Z,100802.22
2024-04-12T05:38:09.521Z,100803.94
2024-04-12T05:40:42.011Z,100802.63
2024-04-12T05:43:16.115Z,100804.38
2024-04-12T05:45:55.363Z,100796.53
2024-04-12T05:48:23.803Z,100801.66
2024-04-12T05:50:55.956Z,100802.41
2024-04-12T05:53:32.945Z,100807.94
2024-04-12T05:56:21.246Z,100802.53
2024-04-12T05:58:52.804Z,100813.41
2024-04-12T06:01:26.559Z,100805.72
2024-04-12T06:03:56.341Z,100811.25
2024-04-12T06:06:24.868Z,100815.09
2024-04-12T06:08:54.591Z,100812.47
2024-04-12T06:11:23.690Z,100812.72
2024-04-12T06:13:55.942Z,100812.50
2024-04-12T06:16:24.947Z,100813.91
2024-04-12T06:18:53.314Z,100814.84
2024-04-12T06:21:20.851Z,100807.00
2024-04-12T06:23:52.791Z,100808.59
2024-04-12T06:26:24.015Z,100800.06
2024-04-12T06:28:54.796Z,100797.88
2024-04-12T06:31:36.175Z,100791.78
2024-04-12T06:34:11.970Z,100783.22
2024-04-12T06:36:46.821Z,100790.63
2024-04-12T06:39:15.909Z,100785.44
2024-04-12T06:41:46.768Z,100788.94
2024-04-12T06:44:20.771Z,100798.31
2024-04-12T06:46:52.984Z,100797.28
2024-04-12T06:49:28.334Z,100800.66
2024-04-12T06:52:11.599Z,100803.19
2024-04-12T06:54:43.491Z,100797.75
2024-04-12T06:57:18.866Z,100801.78
2024-04-12T06:59:49.250Z,100797.38
2024-04-12T07:02:25.245Z,100787.22
2024-04-12T07:04:55.324Z,100787.50
2024-04-12T07:07:26.080Z,100787.50
2024-04-12T07:09:59.632Z,100782.94
2024-04-12T07:12:32.986Z,100784.78
2024-04-12T07:15:01.988Z,100783.16
2024-04-12T07:17:30.625Z,100779.44
2024-04-12T07:20:01.506Z,100789.22
2024-04-12T07:22:29.298Z,100783.97
2024-04-12T07:24:57.585Z,100775.56
2024-04-12T07:27:29.456Z,100783.13
2024-04-12T07:29:59.529Z,100780.28
2024-04-12T07:32:37.269Z,100777.34
2024-04-12T07:35:26.719Z,100779.97
2024-04-12T07:37:59.545Z,100788.59
2024-04-12T07:40:33.838Z,100778.97
2024-04-12T07:43:10.605Z,100771.31
2024-04-12T07:45:42.446Z,100777.16
2024-04-12T07:48:22.055Z,100772.66
2024-04-12T07:50:55.894Z,100765.69
2024-04-12T07:53:27.391Z,100765.13
2024-04-12T07:56:16.175Z,100762.09
2024-04-12T07:58:44.842Z,100765.47
2024-04-12T08:01:18.279Z,100758.50
2024-04-12T08:03:58.371Z,100761.97
2024-04-12T08:06:57.419Z,100764.63
2024-04-12T08:09:46.413Z,100763.13
2024-04-12T08:12:25.423Z,100761.22
2024-04-12T08:14:55.110Z,100762.53
2024-04-12T08:17:28.700Z,100761.06
2024-04-12T08:19:58.821Z,100763.91
2024-04-12T08:22:27.334Z,100756.78
2024-04-12T08:24:55.781Z,100762.78
2024-04-12T08:27:26.839Z,100764.03
2024-04-12T08:29:58.600Z,100766.03
2024-04-12T08:32:35.448Z,100758.09
2024-04-12T08:35:08.843Z,100759.88
2024-04-12T08:37:39.754Z,100755.19
2024-04-12T08:40:11.333Z,100760.03
2024-04-12T08:42:39.491Z,100761.22
2024-04-12T08:45:20.949Z,100754.91
2024-04-12T08:48:03.761Z,100747.91
2024-04-12T08:50:37.147Z,100756.53
2024-04-12T08:53:14.105Z,100750.41
2024-04-12T08:55:46.501Z,100755.72
2024-04-12T08:58:22.638Z,100749.81
2024-04-12T09:00:52.976Z,100750.66
2024-04-12T09:03:28.096Z,100750.41
2024-04-12T09:05:58.131Z,100743.78
2024-04-12T09:08:32.962Z,100741.53
2024-04-12T09:11:05.008Z,100731.66
2024-04-12T09:13:35.121Z,100723.38
2024-04-12T09:16:08.662Z,100728.31
2024-04-12T09:18:47.075Z,100721.97
2024-04-12T09:21:47.664Z,100718.50
2024-04-12T09:24:23.236Z,100719.81
2024-04-12T09:26:57.742Z,100711.94
2024-04-12T09:29:28.906Z,100721.50
2024-04-12T09:32:18.756Z,100718.69
2024-04-12T09:34:57.519Z,100711.09
2024-04-12T09:37:28.536Z,100714.22
2024-04-12T09:40:06.345Z,100711.81
2024-04-12T09:42:49.055Z,100707.41
2024-04-12T09:45:23.799Z,100708.59
2024-04-12T09:48:12.355Z,100714.94
2024-04-12T09:50:59.186Z,100708.41
2024-04-12T09:53:45.707Z,100707.56
2024-04-12T09:56:36.219Z,100696.47
2024-04-12T09:59:29.532Z,100698.16
2024-04-12T10:02:15.920Z,100694.72
2024-04-12T10:05:01.990Z,100685.66
2024-04-12T10:07:48.420Z,100686.56
2024-04-12T10:10:34.634Z,100682.69
2024-04-12T10:13:21.221Z,100686.78
2024-04-12T10:16:14.491Z,100690.44
2024-04-12T10:19:00.777Z,100682.03
2024-04-12T10:21:48.975Z,100687.63
2024-04-12T10:24:35.259Z,100685.97
2024-04-12T10:27:21.813Z,100684.38
2024-04-12T10:30:09.687Z,100678.41
2024-04-12T10:32:58.981Z,100678.75
2024-04-12T10:35:45.161Z,100676.22
2024-04-12T10:38:27.240Z,100671.47
2024-04-12T10:41:09.373Z,100670.66
2024-04-12T10:43:37.130Z,100665.88
2024-04-12T10:46:06.752Z,100665.03
2024-04-12T10:48:35.499Z,100665.88
2024-04-12T10:51:06.187Z,100662.31
2024-04-12T10:53:35.343Z,100659.56
2024-04-12T10:56:04.391Z,100652.44
2024-04-12T10:58:35.264Z,100659.69
2024-04-12T11:01:10.208Z,100657.69
2024-04-12T11:03:39.999Z,100656.41
2024-04-12T11:06:20.210Z,100652.38
2024-04-12T11:08:47.952Z,100652.78
2024-04-12T11:11:19.029Z,100646.84
2024-04-12T11:13:49.145Z,100642.00
2024-04-12T11:16:35.345Z,100644.84
2024-04-12T11:19:21.564Z,100650.13
2024-04-12T11:22:07.634Z,100639.69
2024-04-12T11:24:53.861Z,100632.91
2024-04-12T11:27:40.032Z,100642.84
2024-04-12T11:30:29.967Z,100628.50
2024-04-12T11:32:58.186Z,100625.31
2024-04-12T11:35:30.217Z,100617.31
2024-04-12T11:37:58.074Z,100622.13
2024-04-12T11:40:26.544Z,100624.56
2024-04-12T11:42:57.990Z,100610.19
2024-04-12T11:45:32.021Z,100612.28
2024-04-12T11:48:00.840Z,100606.66
2024-04-12T11:50:28.674Z,100603.50
2024-04-12T11:52:56.799Z,100596.72
2024-04-12T11:55:29.410Z,100601.53
2024-04-12T11:57:57.403Z,100595.97
2024-04-12T12:00:24.952Z,100595.56
2024-04-12T12:02:53.875Z,100597.47
2024-04-12T12:05:23.058Z,100593.03
2024-04-12T12:07:50.510Z,100591.84
2024-04-12T12:10:18.053Z,100589.78
2024-04-12T12:12:45.809Z,100586.97
2024-04-12T12:15:16.248Z,100576.53
2024-04-12T12:17:44.170Z,100574.88
2024-04-12T12:20:11.735Z,100580.53
2024-04-12T12:22:39.961Z,100576.44
2024-04-12T12:25:09.491Z,100570.00
2024-04-12T12:27:37.317Z,100580.72
2024-04-12T12:30:15.306Z,100568.31
2024-04-12T12:32:46.454Z,100569.91
2024-04-12T12:35:24.129Z,100559.53
2024-04-12T12:37:52.597Z,100561.91
2024-04-12T12:40:22.718Z,100563.56
2024-04-12T12:42:53.736Z,100557.13
2024-04-12T12:45:21.761Z,100553.13
2024-04-12T12:47:49.681Z,100556.31
2024-04-12T12:50:24.948Z,100554.72
2024-04-12T12:52:52.761Z,100552.25
2024-04-12T12:55:22.586Z,100553.47
2024-04-12T12:58:11.147Z,100552.22
2024-04-12T13:00:44.116Z,100556.94
2024-04-12T13:03:14.062Z,100550.94
2024-04-12T13:05:41.775Z,100550.56
2024-04-12T13:08:09.264Z,100546.44
2024-04-12T13:10:39.383Z,100555.22
2024-04-12T13:13:07.270Z,100551.16
2024-04-12T13:15:35.041Z,100554.38
2024-04-12T13:18:02.704Z,100550.31
2024-04-12T13:20:37.435Z,100549.13
2024-04-12T13:23:05.067Z,100551.84
2024-04-12T13:25:32.445Z,100546.53
2024-04-12T13:28:05.244Z,100541.34
2024-04-12T13:30:35.630Z,100546.91
2024-04-12T13:33:03.271Z,100538.50
2024-04-12T13:35:33.127Z,100540.09
2024-04-12T13:38:01.199Z,100538.44
2024-04-12T13:40:28.756Z,100535.66
2024-04-12T13:42:56.091Z,100541.31
2024-04-12T13:45:42.326Z,100542.16
2024-04-12T13:48:28.429Z,100539.75
2024-04-12T13:50:56.631Z,100529.41
2024-04-12T13:53:34.055Z,100535.78
2024-04-12T13:56:21.791Z,100532.13
2024-04-12T13:59:09.002Z,100538.91
2024-04-12T14:01:36.661Z,100531.22
2024-04-12T14:04:05.803Z,100536.44
2024-04-12T14:06:36.198Z,100536.38
2024-04-12T14:09:14.543Z,100541.97
2024-04-12T14:11:42.584Z,100545.22
2024-04-12T14:14:10.245Z,100539.13
2024-04-12T14:16:43.865Z,100539.53
2024-04-12T14:19:19.624Z,100525.56
2024-04-12T14:21:52.986Z,100532.44
2024-04-12T14:24:43.292Z,100522.50
2024-04-12T14:27:13.566Z,100520.56
2024-04-12T14:29:41.447Z,100517.41
2024-04-12T14:32:11.777Z,100523.81
2024-04-12T14:34:41.798Z,100513.78
2024-04-12T14:37:09.940Z,100520.53
2024-04-12T14:39:43.951Z,100518.41
2024-04-12T14:42:16.995Z,100521.06
2024-04-12T14:44:45.469Z,100516.03
2024-04-12T14:47:13.306Z,100516.00
2024-04-12T14:49:42.393Z,100512.81
2024-04-12T14:52:13.182Z,100508.00
2024-04-12T14:54:40.857Z,100505.56
2024-04-12T14:57:08.575Z,100505.56
2024-04-12T14:59:36.998Z,100507.94
2024-04-12T15:02:07.399Z,100501.50
2024-04-12T15:04:53.706Z,100500.66
2024-04-12T15:07:39.554Z,100500.16
2024-04-12T15:10:26.679Z,100497.34
2024-04-12T15:13:12.958Z,100493.25
2024-04-12T15:15:59.027Z,100490.38
2024-04-12T15:18:45.131Z,100481.16
2024-04-12T15:21:31.260Z,100485.94
2024-04-12T15:24:17.385Z,100487.44
2024-04-12T15:27:03.540Z,100487.88
2024-04-12T15:29:49.752Z,100494.59
2024-04-12T15:32:36.059Z,100490.63
2024-04-12T15:35:22.166Z,100488.16
2024-04-12T15:38:10.348Z,100494.44
2024-04-12T15:40:56.583Z,100485.88
2024-04-12T15:43:42.636Z,100490.94
2024-04-12T15:46:28.626Z,100497.16
2024-04-12T15:48:57.582Z,100503.47
2024-04-12T15:51:29.585Z,100501.75
2024-04-12T15:54:00.500Z,100510.44
2024-04-12T15:56:29.044Z,100503.94
2024-04-12T15:59:15.075Z,100518.25
2024-04-12T16:02:01.337Z,100512.13
2024-04-12T16:04:47.566Z,100515.22
2024-04-12T16:07:33.460Z,100515.53
2024-04-12T16:10:19.432Z,100511.44
2024-04-12T16:12:47.026Z,100509.69
2024-04-12T16:15:14.651Z,100519.13
2024-04-12T16:17:43.208Z,100510.16
2024-04-12T16:20:10.885Z,100516.75
2024-04-12T16:22:39.960Z,100517.84
2024-04-12T16:25:07.642Z,100523.22
2024-04-12T16:27:35.101Z,100519.84
2024-04-12T16:30:02.900Z,100515.91
2024-04-12T16:32:30.730Z,100525.00
2024-04-12T16:34:59.034Z,100522.06
2024-04-12T16:37:26.690Z,100518.03
2024-04-12T16:39:54.272Z,100525.59
2024-04-12T16:42:22.054Z,100529.03
2024-04-12T16:44:49.702Z,100521.75
2024-04-12T16:47:17.245Z,100523.28
2024-04-12T16:49:45.547Z,100529.50
2024-04-12T16:52:13.335Z,100528.59
2024-04-12T16:54:41.160Z,100521.34
2024-04-12T16:57:10.776Z,100524.41
2024-04-12T16:59:38.624Z,100524.34
2024-04-12T17:02:06.464Z,100529.00
2024-04-12T17:04:34.244Z,100528.47
2024-04-12T17:07:01.779Z,100527.22
2024-04-12T17:09:29.398Z,100524.38
2024-04-12T17:11:56.961Z,100521.53
2024-04-12T17:14:24.488Z,100531.41
2024-04-12T17:16:52.042Z,100522.53
2024-04-12T17:19:19.457Z,100526.00
2024-04-12T17:21:46.980Z,100529.91
2024-04-12T17:24:15.838Z,100529.00
2024-04-12T17:26:46.310Z,100537.22
2024-04-12T17:29:13.881Z,100531.06
2024-04-12T17:31:41.395Z,100531.34
2024-04-12T17:34:10.727Z,100540.66
2024-04-12T17:36:38.464Z,100546.50
2024-04-12T17:39:12.607Z,100540.00
2024-04-12T17:41:40.738Z,100540.25
2024-04-12T17:44:08.570Z,100544.56
2024-04-12T17:46:36.399Z,100552.34
2024-04-12T17:49:06.661Z,100556.13
2024-04-12T17:51:34.501Z,100550.38
2024-04-12T17:54:06.932Z,100556.97
2024-04-12T17:56:39.165Z,100557.16
2024-04-12T17:59:06.749Z,100556.94
2024-04-12T18:01:35.237Z,100552.75
2024-04-12T18:04:08.233Z,100554.97
2024-04-12T18:06:42.219Z,100552.44
2024-04-12T18:09:10.683Z,100562.53
2024-04-12T18:11:38.410Z,100554.81
2024-04-12T18:14:07.099Z,100552.72
2024-04-12T18:16:34.604Z,100551.34
2024-04-12T18:19:04.001Z,100550.78
2024-04-12T18:21:31.612Z,100551.94
2024-04-12T18:24:02.655Z,100549.75
2024-04-12T18:26:30.531Z,100554.41
2024-04-12T18:28:58.241Z,100551.16
2024-04-12T18:31:25.707Z,100553.47
2024-04-12T18:33:54.815Z,100554.16
2024-04-12T18:36:23.188Z,100553.25
2024-04-12T18:39:10.013Z,100551.66
2024-04-12T18:41:57.403Z,100548.63
2024-04-12T18:44:45.035Z,100556.75
2024-04-12T18:47:13.283Z,100559.78
2024-04-12T18:49:40.744Z,100556.53
2024-04-12T18:52:09.568Z,100558.03
2024-04-12T18:54:37.303Z,100552.38
2024-04-12T18:57:06.138Z,100546.16
2024-04-12T18:59:34.440Z,100551.22
2024-04-12T19:02:02.322Z,100552.88
2024-04-12T19:04:30.358Z,100549.63
2024-04-12T19:06:57.855Z,100551.94
2024-04-12T19:09:25.448Z,100556.91
2024-04-12T19:11:54.590Z,100550.09
2024-04-12T19:14:22.480Z,100554.03
2024-04-12T19:16:49.948Z,100557.47
2024-04-12T19:19:18.071Z,100557.00
2024-04-12T19:21:46.089Z,100553.78
2024-04-12T19:24:13.683Z,100548.91
2024-04-12T19:26:41.151Z,100544.50
2024-04-12T19:29:08.746Z,100553.50
2024-04-12T19:31:37.586Z,100553.50
2024-04-12T19:34:05.653Z,100548.66
2024-04-12T19:36:33.285Z,100546.13
2024-04-12T19:39:01.334Z,100549.56
2024-04-12T19:41:29.429Z,100545.88
2024-04-12T19:43:56.928Z,100547.28
2024-04-12T19:46:24.386Z,100535.25
2024-04-12T19:48:51.994Z,100552.56
2024-04-12T19:51:19.711Z,100561.88
2024-04-12T19:53:48.136Z,100556.22
2024-04-12T19:56:16.472Z,100562.81
2024-04-12T19:58:46.126Z,100562.66
2024-04-12T20:01:13.789Z,100551.25
2024-04-12T20:03:43.887Z,100555.50
2024-04-12T20:06:12.124Z,100558.97
2024-04-12T20:08:39.605Z,100549.03
2024-04-12T20:11:07.562Z,100549.03
2024-04-12T20:13:35.652Z,100546.16
2024-04-12T20:16:07.595Z,100559.66
2024-04-12T20:18:37.448Z,100558.03
2024-04-12T20:21:06.380Z,100564.13
2024-04-12T20:23:34.749Z,100558.47
2024-04-12T20:26:14.278Z,100559.84
2024-04-12T20:28:54.861Z,100560.94
2024-04-12T20:31:23.406Z,100566.13
2024-04-12T20:33:59.675Z,100563.38
2024-04-12T20:36:57.381Z,100562.88
2024-04-12T20:39:24.858Z,100562.66
2024-04-12T20:41:56.676Z,100570.13
2024-04-12T20:44:27.301Z,100564.13
2024-04-12T20:46:55.688Z,100570.78
2024-04-12T20:49:24.256Z,100572.13
2024-04-12T20:51:55.204Z,100566.13
2024-04-12T20:54:22.706Z,100568.13
2024-04-12T20:56:50.781Z,100566.19
2024-04-12T20:59:21.530Z,100570.25
2024-04-12T21:01:52.620Z,100570.91
2024-04-12T21:04:21.076Z,100574.81
2024-04-12T21:06:49.503Z,100568.84
2024-04-12T21:09:17.968Z,100573.41
2024-04-12T21:11:48.624Z,100564.28
2024-04-12T21:14:16.269Z,100570.66
2024-04-12T21:16:44.970Z,100563.84
2024-04-12T21:19:16.491Z,100558.66
2024-04-12T21:21:43.955Z,100566.66
2024-04-12T21:24:11.665Z,100568.63
2024-04-12T21:26:39.294Z,100577.47
2024-04-12T21:29:06.743Z,100567.19
2024-04-12T21:31:34.216Z,100566.72
2024-04-12T21:34:01.968Z,100561.06
2024-04-12T21:36:29.549Z,100565.91
2024-04-12T21:38:59.599Z,100574.91
2024-04-12T21:41:27.570Z,100567.25
2024-04-12T21:43:55.968Z,100569.53
2024-04-12T21:46:24.093Z,100571.38
2024-04-12T21:48:52.374Z,100572.50
2024-04-12T21:51:21.533Z,100567.50
2024-04-12T21:53:49.287Z,100577.28
2024-04-12T21:56:17.954Z,100575.19
2024-04-12T21:58:45.338Z,100561.84
2024-04-12T22:01:14.456Z,100565.59
2024-04-12T22:03:42.338Z,100555.38
2024-04-12T22:06:13.268Z,100565.97
2024-04-12T22:08:43.947Z,100554.28
2024-04-12T22:11:11.765Z,100554.28
2024-04-12T22:13:40.071Z,100556.41
2024-04-12T22:16:13.626Z,100553.66
2024-04-12T22:18:41.816Z,100550.91
2024-04-12T22:21:17.797Z,100551.56
2024-04-12T22:23:46.606Z,100552.69
2024-04-12T22:26:15.606Z,100552.69
2024-04-12T22:28:44.045Z,100550.44
2024-04-12T22:31:22.647Z,100546.72
2024-04-12T22:33:52.540Z,100548.19
2024-04-12T22:36:20.564Z,100548.19
2024-04-12T22:38:48.583Z,100553.38
2024-04-12T22:41:16.085Z,100548.97
2024-04-12T22:43:45.551Z,100550.63
2024-04-12T22:46:15.610Z,100547.38
2024-04-12T22:48:46.317Z,100546.91
2024-04-12T22:51:27.497Z,100547.38
2024-04-12T22:53:56.066Z,100540.22
2024-04-12T22:56:26.433Z,100536.53
2024-04-12T22:58:57.195Z,100531.66
2024-04-12T23:01:27.513Z,100539.16
2024-04-12T23:03:57.527Z,100539.47
2024-04-12T23:06:25.386Z,100536.72
2024-04-12T23:08:52.996Z,100542.69
2024-04-12T23:11:20.887Z,100546.16
2024-04-12T23:13:48.472Z,100534.75
2024-04-12T23:16:15.993Z,100545.19
2024-04-12T23:18:43.596Z,100545.19
2024-04-12T23:21:11.497Z,100543.38
2024-04-12T23:23:39.039Z,100548.44
2024-04-12T23:26:07.609Z,100546.31
2024-04-12T23:28:35.607Z,100545.38
2024-04-12T23:31:03.109Z,100544.53
2024-04-12T23:33:35.421Z,100548.94
2024-04-12T23:36:04.691Z,100542.59
2024-04-12T23:38:32.497Z,100549.59
2024-04-12T23:40:59.894Z,100545.22
2024-04-12T23:43:27.336Z,100543.63
2024-04-12T23:45:54.834Z,100550.94
2024-04-12T23:48:25.018Z,100547.88
2024-04-12T23:50:52.642Z,100553.72
2024-04-12T23:53:20.447Z,100542.22
2024-04-12T23:55:47.972Z,100538.16
2024-04-12T23:58:15.436Z,100542.53
